createdAt,value
2018-06-18T00:01:22.313Z,98867.41
2018-06-18T00:03:51.122Z,98873.80
2018-06-18T00:06:19.840Z,98870.00
2018-06-18T00:08:48.637Z,98866.22
2018-06-18T00:11:17.301Z,98867.95
2018-06-18T00:13:45.961Z,98867.61
2018-06-18T00:16:14.841Z,98866.33
2018-06-18T00:18:43.597Z,98863.67
2018-06-18T00:21:12.735Z,98863.42
2018-06-18T00:23:42.390Z,98867.80
2018-06-18T00:26:12.387Z,98864.61
2018-06-18T00:28:41.654Z,98868.41
2018-06-18T00:31:10.598Z,98867.47
2018-06-18T00:33:40.120Z,98870.36
2018-06-18T00:36:09.038Z,98874.22
2018-06-18T00:38:38.991Z,98869.80
2018-06-18T00:41:07.873Z,98871.13
2018-06-18T00:43:36.680Z,98872.00
2018-06-18T00:46:05.727Z,98867.00
2018-06-18T00:48:34.443Z,98874.66
2018-06-18T00:51:03.444Z,98871.27
2018-06-18T00:53:32.872Z,98877.88
2018-06-18T00:56:11.905Z,98876.94
2018-06-18T00:58:41.218Z,98875.55
2018-06-18T01:01:10.770Z,98872.69
2018-06-18T01:03:39.632Z,98874.08
2018-06-18T01:06:08.952Z,98869.36
2018-06-18T01:08:38.309Z,98868.46
2018-06-18T01:11:07.650Z,98865.55
2018-06-18T01:13:36.555Z,98857.47
2018-06-18T01:16:05.622Z,98863.70
2018-06-18T01:18:34.274Z,98859.42
2018-06-18T01:21:03.177Z,98862.47
2018-06-18T01:23:46.416Z,98871.02
2018-06-18T01:26:15.153Z,98866.55
2018-06-18T01:28:43.975Z,98871.55
2018-06-18T01:31:13.053Z,98873.79
2018-06-18T01:33:41.796Z,98868.02
2018-06-18T01:36:10.984Z,98873.92
2018-06-18T01:38:40.775Z,98873.27
2018-06-18T01:41:10.290Z,98871.02
2018-06-18T01:43:39.814Z,98873.45
2018-06-18T01:46:08.781Z,98881.45
2018-06-18T01:48:37.723Z,98878.87
2018-06-18T01:51:07.219Z,98879.01
2018-06-18T01:53:36.260Z,98882.78
2018-06-18T01:56:05.165Z,98881.67
2018-06-18T01:58:33.951Z,98882.20
2018-06-18T02:01:03.045Z,98878.72
2018-06-18T02:03:31.800Z,98878.02
2018-06-18T02:06:00.811Z,98868.45
2018-06-18T02:08:30.152Z,98875.58
2018-06-18T02:10:59.712Z,98873.73
2018-06-18T02:13:28.518Z,98862.06
2018-06-18T02:15:57.536Z,98851.21
2018-06-18T02:18:26.414Z,98857.41
2018-06-18T02:20:55.493Z,98862.01
2018-06-18T02:23:24.546Z,98870.67
2018-06-18T02:25:53.456Z,98877.23
2018-06-18T02:28:27.592Z,98885.52
2018-06-18T02:31:01.913Z,98884.42
2018-06-18T02:33:35.771Z,98889.09
2018-06-18T02:36:09.772Z,98894.16
2018-06-18T02:38:43.725Z,98881.08
2018-06-18T02:41:12.551Z,98884.16
2018-06-18T02:43:41.518Z,98884.69
2018-06-18T02:46:10.561Z,98885.50
2018-06-18T02:48:39.620Z,98884.55
2018-06-18T02:51:08.595Z,98888.41
2018-06-18T02:53:37.379Z,98880.30
2018-06-18T02:56:06.969Z,98869.30
2018-06-18T02:58:36.311Z,98873.32
2018-06-18T03:01:05.329Z,98875.23
2018-06-18T03:03:34.151Z,98883.35
2018-06-18T03:06:03.432Z,98882.49
2018-06-18T03:08:32.463Z,98884.16
2018-06-18T03:11:02.093Z,98884.30
2018-06-18T03:13:30.756Z,98885.63
2018-06-18T03:15:59.933Z,98880.83
2018-06-18T03:18:33.899Z,98883.64
2018-06-18T03:21:07.742Z,98882.97
2018-06-18T03:23:41.833Z,98882.70
2018-06-18T03:26:15.766Z,98881.89
2018-06-18T03:28:50.028Z,98875.02
2018-06-18T03:31:19.424Z,98872.96
2018-06-18T03:33:48.219Z,98877.92
2018-06-18T03:36:17.265Z,98888.95
2018-06-18T03:38:46.351Z,98902.19
2018-06-18T03:41:15.155Z,98900.80
2018-06-18T03:43:48.088Z,98889.20
2018-06-18T03:46:18.015Z,98882.97
2018-06-18T03:48:46.949Z,98878.97
2018-06-18T03:51:16.765Z,98887.35
2018-06-18T03:53:45.579Z,98899.02
2018-06-18T03:56:14.561Z,98905.84
2018-06-18T03:58:43.449Z,98904.64
2018-06-18T04:02:29.576Z,98907.67
2018-06-18T04:05:03.495Z,98904.33
2018-06-18T04:08:04.642Z,98896.09
2018-06-18T04:10:40.274Z,98905.08
2018-06-18T04:13:09.681Z,98913.66
2018-06-18T04:15:39.026Z,98905.79
2018-06-18T04:18:07.781Z,98898.61
2018-06-18T04:20:47.205Z,98897.41
2018-06-18T04:23:16.721Z,98896.61
2018-06-18T04:25:46.686Z,98900.41
2018-06-18T04:28:15.557Z,98898.66
2018-06-18T04:30:45.960Z,98898.39
2018-06-18T04:33:16.723Z,98910.20
2018-06-18T04:35:45.423Z,98917.32
2018-06-18T04:38:14.771Z,98924.71
2018-06-18T04:40:43.627Z,98928.53
2018-06-18T04:43:17.588Z,98930.38
2018-06-18T04:45:51.253Z,98927.77
2018-06-18T04:48:26.178Z,98927.98
2018-06-18T04:51:01.138Z,98927.96
2018-06-18T04:53:30.404Z,98933.63
2018-06-18T04:55:59.321Z,98930.87
2018-06-18T04:58:28.916Z,98924.41
2018-06-18T05:01:11.126Z,98932.85
2018-06-18T05:03:40.008Z,98936.09
2018-06-18T05:06:08.947Z,98941.39
2018-06-18T05:10:55.124Z,98935.59
2018-06-18T05:13:24.198Z,98925.13
2018-06-18T05:15:54.199Z,98927.83
2018-06-18T05:18:23.724Z,98930.89
2018-06-18T05:20:52.886Z,98935.72
2018-06-18T05:23:21.724Z,98935.95
2018-06-18T05:25:56.003Z,98932.64
2018-06-18T05:28:25.576Z,98921.45
2018-06-18T05:30:54.745Z,98924.55
2018-06-18T05:33:23.635Z,98929.92
2018-06-18T05:35:53.084Z,98928.88
2018-06-18T05:38:29.579Z,98938.06
2018-06-18T05:40:59.787Z,98937.86
2018-06-18T05:43:29.093Z,98939.27
2018-06-18T05:45:58.126Z,98938.37
2018-06-18T05:48:26.917Z,98940.02
2018-06-18T05:50:56.098Z,98943.73
2018-06-18T05:53:24.895Z,98948.23
2018-06-18T05:55:54.459Z,98951.64
2018-06-18T05:58:23.043Z,98943.78
2018-06-18T06:00:52.069Z,98948.92
2018-06-18T06:03:21.454Z,98958.46
2018-06-18T06:05:50.231Z,98952.06
2018-06-18T06:08:18.970Z,98946.81
2018-06-18T06:10:47.716Z,98947.42
2018-06-18T06:13:17.324Z,98950.56
2018-06-18T06:15:47.364Z,98951.89
2018-06-18T06:18:16.037Z,98956.47
2018-06-18T06:20:48.153Z,98952.66
2018-06-18T06:23:16.964Z,98955.67
2018-06-18T06:25:45.807Z,98957.09
2018-06-18T06:28:15.049Z,98950.78
2018-06-18T06:30:44.022Z,98948.70
2018-06-18T06:33:13.145Z,98949.70
2018-06-18T06:35:43.646Z,98946.86
2018-06-18T06:38:12.751Z,98944.50
2018-06-18T06:40:42.031Z,98953.84
2018-06-18T06:43:11.469Z,98951.99
2018-06-18T06:45:41.460Z,98958.95
2018-06-18T06:48:11.004Z,98963.06
2018-06-18T06:50:40.083Z,98961.60
2018-06-18T06:53:09.953Z,98962.12
2018-06-18T06:55:38.924Z,98971.33
2018-06-18T06:58:07.791Z,98974.11
2018-06-18T07:00:36.903Z,98973.34
2018-06-18T07:03:05.785Z,98972.25
2018-06-18T07:05:34.845Z,98976.77
2018-06-18T07:08:03.808Z,98972.90
2018-06-18T07:10:32.667Z,98982.21
2018-06-18T07:13:01.604Z,98979.34
2018-06-18T07:15:30.347Z,98972.19
2018-06-18T07:17:59.171Z,98976.52
2018-06-18T07:20:29.839Z,98980.66
2018-06-18T07:22:58.718Z,98976.52
2018-06-18T07:25:28.195Z,98983.18
2018-06-18T07:27:57.292Z,98973.19
2018-06-18T07:30:26.512Z,98980.55
2018-06-18T07:32:55.263Z,98976.24
2018-06-18T07:35:24.357Z,98978.43
2018-06-18T07:37:53.521Z,98976.52
2018-06-18T07:40:22.680Z,98968.61
2018-06-18T07:42:51.606Z,98970.07
2018-06-18T07:45:20.603Z,98964.68
2018-06-18T07:47:50.625Z,98970.72
2018-06-18T07:50:19.283Z,98969.59
2018-06-18T07:52:48.616Z,98973.27
2018-06-18T07:55:18.471Z,98975.19
2018-06-18T07:57:47.281Z,98973.88
2018-06-18T08:00:16.326Z,98975.31
2018-06-18T08:02:45.811Z,98975.78
2018-06-18T08:05:14.718Z,98977.91
2018-06-18T08:07:44.075Z,98975.03
2018-06-18T08:10:13.006Z,98984.22
2018-06-18T08:12:41.901Z,98975.44
2018-06-18T08:15:11.169Z,98984.39
2018-06-18T08:17:40.207Z,98980.66
2018-06-18T08:20:09.442Z,98980.92
2018-06-18T08:22:38.357Z,98987.20
2018-06-18T08:25:07.424Z,98987.88
2018-06-18T08:27:36.292Z,98984.06
2018-06-18T08:30:05.171Z,98982.07
2018-06-18T08:32:34.044Z,98994.00
2018-06-18T08:35:03.046Z,99000.16
2018-06-18T08:37:32.002Z,98999.66
2018-06-18T08:40:00.839Z,99008.22
2018-06-18T08:42:29.821Z,99001.25
2018-06-18T08:44:58.659Z,98994.87
2018-06-18T08:47:28.152Z,98992.67
2018-06-18T08:50:02.903Z,98992.09
2018-06-18T08:52:37.061Z,98981.33
2018-06-18T08:55:11.035Z,98989.45
2018-06-18T08:57:45.105Z,98993.02
2018-06-18T09:00:19.032Z,98990.02
2018-06-18T09:02:49.196Z,98990.41
2018-06-18T09:05:22.528Z,98986.66
2018-06-18T09:07:58.835Z,98991.39
2018-06-18T09:10:28.372Z,98994.36
2018-06-18T09:12:57.410Z,98984.72
2018-06-18T09:15:26.241Z,98988.55
2018-06-18T09:17:55.052Z,98983.55
2018-06-18T09:20:24.066Z,98988.13
2018-06-18T09:22:53.906Z,98995.86
2018-06-18T09:25:23.546Z,99002.34
2018-06-18T09:27:52.525Z,98992.89
2018-06-18T09:30:22.104Z,98987.30
2018-06-18T09:32:51.334Z,98987.44
2018-06-18T09:35:20.879Z,98982.10
2018-06-18T09:37:51.210Z,98984.11
2018-06-18T09:40:20.357Z,98985.25
2018-06-18T09:42:49.239Z,98991.70
2018-06-18T09:45:18.908Z,98991.64
2018-06-18T09:47:48.426Z,98993.61
2018-06-18T09:51:21.266Z,98984.31
2018-06-18T09:53:55.144Z,98983.89
2018-06-18T09:56:29.010Z,98986.09
2018-06-18T09:59:03.093Z,98989.87
2018-06-18T10:01:33.084Z,98987.38
2018-06-18T10:04:03.495Z,98984.64
2018-06-18T10:06:34.135Z,98993.52
2018-06-18T10:09:05.543Z,98988.28
2018-06-18T10:11:35.071Z,98978.97
2018-06-18T10:14:04.289Z,98977.29
2018-06-18T10:16:32.952Z,98978.89
2018-06-18T10:19:01.653Z,98974.34
2018-06-18T10:21:30.641Z,98985.02
2018-06-18T10:23:59.569Z,98964.15
2018-06-18T10:26:28.384Z,98967.64
2018-06-18T10:28:57.169Z,98962.44
2018-06-18T10:31:25.803Z,98959.67
2018-06-18T10:33:59.640Z,98959.63
2018-06-18T10:36:33.463Z,98957.55
2018-06-18T10:39:07.332Z,98958.55
2018-06-18T10:41:41.230Z,98962.39
2018-06-18T10:44:09.872Z,98959.46
2018-06-18T10:46:38.543Z,98967.32
2018-06-18T10:49:07.289Z,98955.06
2018-06-18T10:51:36.269Z,98961.05
2018-06-18T10:54:09.510Z,98962.72
2018-06-18T10:56:38.348Z,98952.44
2018-06-18T10:59:07.289Z,98955.20
2018-06-18T11:01:35.926Z,98951.92
2018-06-18T11:04:05.885Z,98957.39
2018-06-18T11:06:37.370Z,98961.17
2018-06-18T11:09:10.118Z,98963.83
2018-06-18T11:11:38.963Z,98953.48
2018-06-18T11:14:08.131Z,98952.95
2018-06-18T11:16:37.108Z,98951.84
2018-06-18T11:19:11.216Z,98944.83
2018-06-18T11:21:45.219Z,98955.23
2018-06-18T11:24:19.471Z,98954.53
2018-06-18T11:26:54.109Z,98947.89
2018-06-18T11:29:23.247Z,98945.41
2018-06-18T11:31:52.415Z,98949.72
2018-06-18T11:34:21.620Z,98946.20
2018-06-18T11:36:50.701Z,98941.22
2018-06-18T11:39:19.572Z,98942.03
2018-06-18T11:41:48.652Z,98943.61
2018-06-18T11:44:18.215Z,98943.32
2018-06-18T11:46:47.346Z,98934.95
2018-06-18T11:49:17.035Z,98928.99
2018-06-18T11:51:45.986Z,98941.56
2018-06-18T11:54:14.853Z,98934.44
2018-06-18T11:56:43.678Z,98930.84
2018-06-18T11:59:17.818Z,98932.21
2018-06-18T12:01:52.345Z,98923.83
2018-06-18T12:04:27.546Z,98923.56
2018-06-18T12:07:01.669Z,98918.52
2018-06-18T12:09:33.393Z,98921.09
2018-06-18T12:12:02.233Z,98922.48
2018-06-18T12:14:31.003Z,98916.09
2018-06-18T12:16:59.941Z,98911.30
2018-06-18T12:19:28.831Z,98915.79
2018-06-18T12:21:57.767Z,98913.52
2018-06-18T12:24:26.722Z,98909.98
2018-06-18T12:26:55.680Z,98901.98
2018-06-18T12:29:25.389Z,98900.16
2018-06-18T12:31:54.045Z,98901.69
2018-06-18T12:34:22.847Z,98898.34
2018-06-18T12:36:51.618Z,98895.72
2018-06-18T12:39:21.643Z,98897.20
2018-06-18T12:41:59.503Z,98891.07
2018-06-18T12:44:32.498Z,98896.73
2018-06-18T12:47:06.459Z,98894.88
2018-06-18T12:49:40.267Z,98896.72
2018-06-18T12:52:14.096Z,98897.25
2018-06-18T12:54:47.907Z,98892.48
2018-06-18T12:57:16.676Z,98890.61
2018-06-18T12:59:45.362Z,98884.96
2018-06-18T13:02:18.437Z,98889.02
2018-06-18T13:04:53.891Z,98892.09
2018-06-18T13:07:22.884Z,98888.07
2018-06-18T13:09:51.547Z,98889.75
2018-06-18T13:12:20.323Z,98898.92
2018-06-18T13:14:48.966Z,98899.20
2018-06-18T13:17:17.659Z,98892.89
2018-06-18T13:19:46.314Z,98893.81
2018-06-18T13:22:15.272Z,98900.75
2018-06-18T13:24:44.312Z,98892.17
2018-06-18T13:27:13.070Z,98889.98
2018-06-18T13:29:41.851Z,98894.19
2018-06-18T13:32:10.495Z,98894.78
2018-06-18T13:34:43.390Z,98888.98
2018-06-18T13:37:17.201Z,98882.36
2018-06-18T13:39:51.088Z,98885.00
2018-06-18T13:42:24.848Z,98889.11
2018-06-18T13:44:58.767Z,98892.34
2018-06-18T13:47:32.651Z,98885.97
2018-06-18T13:50:01.668Z,98887.58
2018-06-18T13:52:30.728Z,98881.67
2018-06-18T13:54:59.795Z,98879.00
2018-06-18T13:57:29.259Z,98884.84
2018-06-18T13:59:58.237Z,98876.36
2018-06-18T14:02:26.901Z,98875.17
2018-06-18T14:04:55.895Z,98871.63
2018-06-18T14:07:24.587Z,98874.30
2018-06-18T14:09:53.599Z,98869.88
2018-06-18T14:12:22.821Z,98878.85
2018-06-18T14:14:52.222Z,98886.03
2018-06-18T14:17:21.528Z,98875.27
2018-06-18T14:19:55.421Z,98884.86
2018-06-18T14:22:24.314Z,98870.70
2018-06-18T14:24:53.835Z,98869.60
2018-06-18T14:27:22.598Z,98861.59
2018-06-18T14:29:56.645Z,98863.09
2018-06-18T14:32:39.667Z,98866.52
2018-06-18T14:35:13.638Z,98867.02
2018-06-18T14:37:47.748Z,98859.00
2018-06-18T14:40:18.314Z,98857.52
2018-06-18T14:42:47.011Z,98865.66
2018-06-18T14:45:15.623Z,98857.74
2018-06-18T14:47:44.563Z,98862.19
2018-06-18T14:50:13.251Z,98859.94
2018-06-18T14:52:42.297Z,98864.23
2018-06-18T14:55:12.107Z,98858.61
2018-06-18T14:57:40.809Z,98858.94
2018-06-18T15:00:19.704Z,98851.81
2018-06-18T15:02:59.023Z,98860.66
2018-06-18T15:05:31.550Z,98856.44
2018-06-18T15:08:00.354Z,98853.81
2018-06-18T15:10:34.150Z,98860.44
2018-06-18T15:13:03.199Z,98867.11
2018-06-18T15:15:37.032Z,98864.48
2018-06-18T15:18:05.945Z,98860.83
2018-06-18T15:20:34.807Z,98849.28
2018-06-18T15:23:04.768Z,98861.71
2018-06-18T15:25:35.869Z,98867.30
2018-06-18T15:28:05.722Z,98858.30
2018-06-18T15:30:34.504Z,98851.27
2018-06-18T15:33:03.304Z,98854.45
2018-06-18T15:35:32.400Z,98849.25
2018-06-18T15:38:01.336Z,98855.41
2018-06-18T15:40:30.202Z,98850.66
2018-06-18T15:42:58.890Z,98845.84
2018-06-18T15:45:27.636Z,98847.05
2018-06-18T15:47:57.756Z,98849.97
2018-06-18T15:50:26.452Z,98842.30
2018-06-18T15:52:55.097Z,98843.14
2018-06-18T15:55:23.897Z,98848.83
2018-06-18T15:57:53.804Z,98854.16
2018-06-18T16:00:22.643Z,98847.78
2018-06-18T16:02:51.344Z,98855.25
2018-06-18T16:05:20.116Z,98849.45
2018-06-18T16:07:48.856Z,98850.97
2018-06-18T16:10:17.590Z,98848.13
2018-06-18T16:12:46.288Z,98854.75
2018-06-18T16:15:15.079Z,98856.03
2018-06-18T16:17:43.814Z,98849.06
2018-06-18T16:20:12.581Z,98869.96
2018-06-18T16:22:41.500Z,98855.51
2018-06-18T16:25:10.278Z,98860.81
2018-06-18T16:27:39.050Z,98862.91
2018-06-18T16:30:07.868Z,98860.98
2018-06-18T16:32:36.643Z,98869.00
2018-06-18T16:35:05.440Z,98860.93
2018-06-18T16:37:34.154Z,98870.18
2018-06-18T16:40:02.924Z,98866.38
2018-06-18T16:42:31.576Z,98870.10
2018-06-18T16:45:00.276Z,98869.45
2018-06-18T16:47:29.006Z,98874.72
2018-06-18T16:49:57.648Z,98878.91
2018-06-18T16:52:26.394Z,98869.95
2018-06-18T16:54:55.147Z,98873.19
2018-06-18T16:57:25.248Z,98867.92
2018-06-18T16:59:53.973Z,98865.86
2018-06-18T17:02:22.733Z,98876.20
2018-06-18T17:04:51.551Z,98872.58
2018-06-18T17:07:20.399Z,98879.58
2018-06-18T17:09:49.130Z,98890.36
2018-06-18T17:12:17.814Z,98884.44
2018-06-18T17:14:46.553Z,98880.17
2018-06-18T17:17:15.378Z,98889.73
2018-06-18T17:19:44.099Z,98881.48
2018-06-18T17:22:12.894Z,98887.91
2018-06-18T17:24:41.732Z,98889.00
2018-06-18T17:27:10.563Z,98887.09
2018-06-18T17:29:39.353Z,98893.73
2018-06-18T17:32:08.240Z,98897.98
2018-06-18T17:34:37.022Z,98881.34
2018-06-18T17:37:06.011Z,98888.66
2018-06-18T17:39:34.943Z,98888.16
2018-06-18T17:42:03.627Z,98893.13
2018-06-18T17:44:32.264Z,98884.66
2018-06-18T17:47:01.024Z,98887.34
2018-06-18T17:49:30.005Z,98894.00
2018-06-18T17:51:58.691Z,98899.34
2018-06-18T17:54:27.495Z,98889.69
2018-06-18T17:56:56.161Z,98885.11
2018-06-18T17:59:24.995Z,98892.25
2018-06-18T18:01:53.721Z,98894.25
2018-06-18T18:04:22.502Z,98887.17
2018-06-18T18:06:51.150Z,98890.19
2018-06-18T18:09:20.142Z,98893.13
2018-06-18T18:11:49.614Z,98886.95
2018-06-18T18:14:18.386Z,98889.01
2018-06-18T18:16:47.267Z,98891.31
2018-06-18T18:19:15.988Z,98902.36
2018-06-18T18:21:44.849Z,98896.56
2018-06-18T18:24:13.541Z,98899.91
2018-06-18T18:26:42.596Z,98904.72
2018-06-18T18:29:11.227Z,98897.41
2018-06-18T18:31:40.107Z,98895.11
2018-06-18T18:34:08.872Z,98901.66
2018-06-18T18:36:38.768Z,98900.45
2018-06-18T18:39:09.531Z,98903.63
2018-06-18T18:41:39.103Z,98907.62
2018-06-18T18:44:08.069Z,98897.27
2018-06-18T18:46:36.967Z,98895.66
2018-06-18T18:49:05.717Z,98901.09
2018-06-18T18:51:34.506Z,98904.06
2018-06-18T18:54:03.316Z,98901.06
2018-06-18T18:57:43.076Z,98914.35
2018-06-18T19:00:11.984Z,98912.84
2018-06-18T19:02:40.861Z,98918.47
2018-06-18T19:05:17.600Z,98914.08
2018-06-18T19:07:46.510Z,98915.44
2018-06-18T19:10:27.254Z,98917.17
2018-06-18T19:12:57.551Z,98927.57
2018-06-18T19:15:26.600Z,98921.70
2018-06-18T19:17:55.506Z,98927.89
2018-06-18T19:20:29.111Z,98927.84
2018-06-18T19:22:57.955Z,98938.76
2018-06-18T19:25:26.685Z,98943.25
2018-06-18T19:27:55.493Z,98939.58
2018-06-18T19:30:24.298Z,98946.67
2018-06-18T19:32:55.214Z,98949.20
2018-06-18T19:35:24.052Z,98956.53
2018-06-18T19:37:52.892Z,98962.00
2018-06-18T19:40:21.528Z,98962.86
2018-06-18T19:42:50.184Z,98961.70
2018-06-18T19:45:20.478Z,98968.29
2018-06-18T19:47:51.973Z,98974.50
2018-06-18T19:50:20.711Z,98968.57
2018-06-18T19:52:49.551Z,98966.33
2018-06-18T19:55:22.273Z,98977.93
2018-06-18T19:57:50.909Z,98975.96
2018-06-18T20:00:19.927Z,98990.42
2018-06-18T20:02:48.640Z,98995.14
2018-06-18T20:05:17.316Z,98977.22
2018-06-18T20:07:51.006Z,98994.64
2018-06-18T20:10:19.884Z,98998.41
2018-06-18T20:12:48.729Z,98995.14
2018-06-18T20:15:17.559Z,98999.62
2018-06-18T20:17:46.331Z,99003.37
2018-06-18T20:20:15.626Z,98997.22
2018-06-18T20:22:44.714Z,99004.46
2018-06-18T20:25:13.939Z,99010.87
2018-06-18T20:27:42.740Z,99018.03
2018-06-18T20:30:12.013Z,99020.38
2018-06-18T20:32:41.013Z,99014.44
2018-06-18T20:35:16.924Z,99017.52
2018-06-18T20:37:46.080Z,99018.05
2018-06-18T20:40:15.081Z,99027.59
2018-06-18T20:42:43.820Z,99023.53
2018-06-18T20:45:12.561Z,99024.01
2018-06-18T20:47:41.286Z,99023.34
2018-06-18T20:50:10.268Z,99018.87
2018-06-18T20:52:40.032Z,99015.73
2018-06-18T20:55:09.126Z,99024.68
2018-06-18T20:57:37.883Z,99023.30
2018-06-18T21:00:07.171Z,99029.09
2018-06-18T21:02:35.978Z,99029.28
2018-06-18T21:05:04.818Z,99031.80
2018-06-18T21:07:33.838Z,99033.87
2018-06-18T21:10:02.730Z,99030.91
2018-06-18T21:12:31.461Z,99029.76
2018-06-18T21:15:01.139Z,99036.27
2018-06-18T21:17:30.051Z,99038.72
2018-06-18T21:19:59.011Z,99036.27
2018-06-18T21:22:27.766Z,99038.51
2018-06-18T21:24:56.606Z,99037.70
2018-06-18T21:27:25.412Z,99037.43
2018-06-18T21:29:54.203Z,99035.67
2018-06-18T21:32:23.025Z,99032.67
2018-06-18T21:34:51.776Z,99036.36
2018-06-18T21:37:20.731Z,99033.81
2018-06-18T21:39:49.555Z,99037.81
2018-06-18T21:42:18.406Z,99039.06
2018-06-18T21:45:07.924Z,99036.95
2018-06-18T21:47:36.646Z,99037.09
2018-06-18T21:50:05.767Z,99034.73
2018-06-18T21:52:34.626Z,99041.17
2018-06-18T21:55:03.668Z,99036.27
2018-06-18T21:57:32.554Z,99040.95
2018-06-18T22:00:01.228Z,99041.67
2018-06-18T22:02:29.963Z,99042.70
2018-06-18T22:04:59.043Z,99051.56
2018-06-18T22:07:27.734Z,99047.58
2018-06-18T22:09:56.749Z,99051.69
2018-06-18T22:12:25.595Z,99051.81
2018-06-18T22:14:54.403Z,99059.84
2018-06-18T22:17:23.156Z,99054.80
2018-06-18T22:19:51.972Z,99052.81
2018-06-18T22:22:20.811Z,99048.94
2018-06-18T22:24:49.580Z,99051.52
2018-06-18T22:27:18.276Z,99057.19
2018-06-18T22:29:47.082Z,99048.07
2018-06-18T22:32:15.875Z,99053.11
2018-06-18T22:34:44.776Z,99054.59
2018-06-18T22:37:13.506Z,99046.58
2018-06-18T22:39:42.399Z,99046.97
2018-06-18T22:42:10.997Z,99048.07
2018-06-18T22:44:39.673Z,99048.54
2018-06-18T22:47:08.720Z,99052.17
2018-06-18T22:49:37.454Z,99049.74
2018-06-18T22:52:06.253Z,99040.23
2018-06-18T22:54:34.888Z,99051.88
2018-06-18T22:57:03.594Z,99044.99
2018-06-18T22:59:32.501Z,99046.86
2018-06-18T23:02:01.741Z,99042.22
2018-06-18T23:04:30.649Z,99043.51
2018-06-18T23:06:59.385Z,99043.30
2018-06-18T23:09:28.152Z,99042.55
2018-06-18T23:11:57.061Z,99043.02
2018-06-18T23:14:26.395Z,99040.44
2018-06-18T23:16:55.256Z,99039.19
2018-06-18T23:19:24.029Z,99045.40
2018-06-18T23:21:52.768Z,99046.38
2018-06-18T23:24:21.435Z,99040.84
2018-06-18T23:26:50.972Z,99036.06
2018-06-18T23:29:20.435Z,99039.70
2018-06-18T23:31:49.161Z,99034.56
2018-06-18T23:34:17.871Z,99041.64
2018-06-18T23:36:46.860Z,99040.92
2018-06-18T23:39:15.628Z,99037.50
2018-06-18T23:41:48.313Z,99043.42
2018-06-18T23:44:17.049Z,99042.95
2018-06-18T23:46:45.861Z,99042.95
2018-06-18T23:49:14.722Z,99048.20
2018-06-18T23:51:43.614Z,99045.44
2018-06-18T23:54:12.387Z,99046.88
2018-06-18T23:56:41.238Z,99051.66
2018-06-18T23:59:10.553Z,99060.56
